Time;durP1;ratioP1;P1;durP2;ratioP2;P2;SDS_P1;SDS_P2;PMS_P1;PMS_P2;Temp;Humidity;BMP_temperature;BMP_pressure;BME280_temperature;BME280_humidity;BME280_pressure;Samples;Min_cycle;Max_cycle;Signal;HPM_P1;HPM_P2
2023/08/28 00:02:24;;;;;;;2.67;1.27;;;14.90;99.90;;;;;;4950516;28;20055;-62
2023/08/28 00:04:51;;;;;;;3.85;1.30;;;14.80;99.90;;;;;;4966076;28;20051;-62
2023/08/28 00:07:19;;;;;;;5.53;1.45;;;14.80;99.90;;;;;;4966704;28;20055;-64
2023/08/28 00:09:46;;;;;;;4.40;1.55;;;14.80;99.90;;;;;;4966024;28;20391;-63
2023/08/28 00:12:13;;;;;;;6.13;1.10;;;14.70;99.90;;;;;;4950320;28;20058;-62
2023/08/28 00:14:40;;;;;;;4.45;1.48;;;14.70;99.90;;;;;;4966674;28;20046;-62
2023/08/28 00:17:06;;;;;;;5.68;1.65;;;14.70;99.90;;;;;;4965405;28;20047;-62
2023/08/28 00:19:33;;;;;;;3.35;1.52;;;14.70;99.90;;;;;;4967310;28;20062;-62
2023/08/28 00:22:00;;;;;;;4.28;1.52;;;14.70;99.90;;;;;;4965875;28;20050;-63
2023/08/28 00:24:27;;;;;;;9.38;1.67;;;14.70;99.90;;;;;;4955207;28;20111;-63
2023/08/28 00:26:54;;;;;;;1.80;1.25;;;14.70;99.90;;;;;;4967298;28;20468;-63
2023/08/28 00:29:23;;;;;;;5.13;1.40;;;14.70;99.90;;;;;;4967742;28;20105;-62
2023/08/28 00:31:50;;;;;;;3.05;1.98;;;14.50;99.90;;;;;;4967763;28;20046;-63
2023/08/28 00:34:17;;;;;;;3.13;1.40;;;14.50;99.90;;;;;;4967813;28;20101;-62
2023/08/28 00:36:44;;;;;;;7.55;2.03;;;14.50;99.90;;;;;;4966360;28;20086;-62
2023/08/28 00:39:11;;;;;;;4.88;1.45;;;14.50;99.90;;;;;;4959687;28;20039;-63
2023/08/28 00:41:37;;;;;;;5.20;1.80;;;14.50;99.90;;;;;;4964628;28;20117;-62
2023/08/28 00:44:04;;;;;;;3.08;1.27;;;14.50;99.90;;;;;;4967493;28;20506;-62
2023/08/28 00:46:32;;;;;;;1.23;1.02;;;14.50;99.90;;;;;;4966060;28;20061;-63
2023/08/28 00:48:58;;;;;;;1.80;1.10;;;14.50;99.90;;;;;;4967283;28;20046;-63
2023/08/28 00:51:25;;;;;;;4.63;1.20;;;14.50;99.90;;;;;;4950331;28;20047;-63
2023/08/28 00:53:52;;;;;;;3.38;1.55;;;14.40;99.90;;;;;;4969899;28;20042;-63
2023/08/28 00:56:19;;;;;;;4.40;1.60;;;14.40;99.90;;;;;;4967842;28;20059;-63
2023/08/28 00:58:46;;;;;;;8.48;1.50;;;14.30;99.90;;;;;;4966483;28;20589;-64
2023/08/28 01:01:12;;;;;;;3.55;1.40;;;14.30;99.90;;;;;;4950363;28;20054;-63
2023/08/28 01:03:39;;;;;;;2.53;1.30;;;14.10;99.90;;;;;;4956329;28;20562;-64
2023/08/28 01:06:21;;;;;;;6.35;1.90;;;14.00;99.90;;;;;;4967983;28;20074;-64
2023/08/28 01:08:56;;;;;;;7.47;1.70;;;14.00;99.90;;;;;;4969383;28;20046;-63
2023/08/28 01:11:34;;;;;;;3.75;1.63;;;13.90;99.90;;;;;;4970951;28;20042;-63
2023/08/28 01:14:25;;;;;;;3.45;1.30;;;13.90;99.90;;;;;;4970613;28;20066;-63
2023/08/28 01:17:05;;;;;;;4.72;1.40;;;13.90;99.90;;;;;;4964310;28;20085;-63
2023/08/28 01:19:33;;;;;;;4.20;1.58;;;13.80;99.90;;;;;;4939398;28;20043;-63
2023/08/28 01:22:39;;;;;;;4.18;1.50;;;13.80;99.90;;;;;;4969397;28;20539;-64
2023/08/28 01:25:12;;;;;;;2.50;1.30;;;13.90;99.90;;;;;;4612505;28;10000170;-62
2023/08/28 01:27:39;;;;;;;3.88;1.30;;;13.80;99.90;;;;;;4949591;28;20050;-63
2023/08/28 01:30:14;;;;;;;3.03;1.00;;;13.80;99.90;;;;;;4948591;28;20114;-64
2023/08/28 01:32:42;;;;;;;3.58;1.20;;;13.80;99.90;;;;;;4970541;28;20057;-64
2023/08/28 01:35:14;;;;;;;4.35;1.30;;;13.80;99.90;;;;;;4969598;28;20057;-65
2023/08/28 01:37:49;;;;;;;4.57;1.65;;;13.80;99.90;;;;;;4970471;28;20061;-64
2023/08/28 01:40:17;;;;;;;2.55;1.40;;;13.80;99.90;;;;;;4967826;28;20051;-64
2023/08/28 01:42:45;;;;;;;2.63;1.13;;;13.80;99.90;;;;;;4949183;28;20114;-62
2023/08/28 01:45:13;;;;;;;4.22;1.10;;;13.80;99.90;;;;;;4951948;28;20050;-63
2023/08/28 01:47:40;;;;;;;5.50;1.08;;;13.70;99.90;;;;;;4968420;28;20253;-63
2023/08/28 01:50:07;;;;;;;3.22;1.50;;;13.80;99.90;;;;;;4954269;28;20134;-63
2023/08/28 01:52:34;;;;;;;6.10;1.30;;;13.70;99.90;;;;;;4970335;28;20042;-63
2023/08/28 01:55:01;;;;;;;3.05;1.85;;;13.70;99.90;;;;;;4969813;28;20077;-63
2023/08/28 01:57:28;;;;;;;3.30;1.52;;;13.60;99.90;;;;;;4969888;28;20053;-63
2023/08/28 01:59:55;;;;;;;3.03;1.40;;;13.60;99.90;;;;;;4969693;28;20043;-63
2023/08/28 02:02:21;;;;;;;3.20;1.10;;;13.60;99.90;;;;;;4969706;28;20513;-64
2023/08/28 02:04:48;;;;;;;2.78;1.08;;;13.60;99.90;;;;;;4970027;28;20039;-63
2023/08/28 02:07:15;;;;;;;6.40;1.27;;;13.60;99.90;;;;;;4968385;28;20105;-63
2023/08/28 02:09:42;;;;;;;3.20;1.55;;;13.60;99.90;;;;;;4969526;28;20089;-64
2023/08/28 02:12:09;;;;;;;2.83;1.50;;;13.60;99.90;;;;;;4960952;28;20495;-62
2023/08/28 02:14:35;;;;;;;4.53;1.63;;;13.60;99.90;;;;;;4969750;28;20097;-62
2023/08/28 02:17:02;;;;;;;6.13;1.88;;;13.60;99.90;;;;;;4968864;28;20502;-62
2023/08/28 02:19:29;;;;;;;4.05;1.60;;;13.50;99.90;;;;;;4969420;28;20047;-63
2023/08/28 02:22:01;;;;;;;5.28;1.50;;;13.60;99.90;;;;;;4969923;28;20478;-62
2023/08/28 02:24:28;;;;;;;2.15;1.38;;;13.50;99.90;;;;;;4969419;28;20105;-63
2023/08/28 02:26:55;;;;;;;2.35;1.35;;;13.60;99.90;;;;;;4969183;28;20133;-62
2023/08/28 02:29:22;;;;;;;2.63;1.30;;;13.60;99.90;;;;;;4969404;28;20057;-63
2023/08/28 02:31:49;;;;;;;2.22;1.35;;;13.50;99.90;;;;;;4969053;28;20051;-61
2023/08/28 02:34:16;;;;;;;4.55;2.00;;;13.50;99.90;;;;;;4964066;28;20677;-62
2023/08/28 02:36:42;;;;;;;2.13;1.30;;;13.40;99.90;;;;;;4967819;28;20054;-62
2023/08/28 02:39:09;;;;;;;4.30;1.67;;;13.40;99.90;;;;;;4969443;28;20042;-61
2023/08/28 02:41:36;;;;;;;7.68;2.13;;;13.40;99.90;;;;;;4969713;28;20047;-62
2023/08/28 02:44:03;;;;;;;2.72;1.67;;;13.40;99.90;;;;;;4968051;28;20493;-63
2023/08/28 02:46:30;;;;;;;2.10;1.20;;;13.40;99.90;;;;;;4969042;28;20110;-62
2023/08/28 02:48:57;;;;;;;2.10;1.55;;;13.50;99.90;;;;;;4968776;28;20061;-63
2023/08/28 02:51:23;;;;;;;8.07;1.75;;;13.50;99.90;;;;;;4968573;28;20051;-63
2023/08/28 02:53:51;;;;;;;3.55;1.48;;;13.40;99.90;;;;;;4968495;28;20039;-62
2023/08/28 02:56:21;;;;;;;2.50;1.58;;;13.40;99.90;;;;;;4969166;28;20054;-63
2023/08/28 02:58:48;;;;;;;4.13;1.52;;;13.40;99.90;;;;;;4968419;28;20050;-62
2023/08/28 03:01:15;;;;;;;4.35;1.05;;;13.40;99.90;;;;;;4951320;28;20058;-63
2023/08/28 03:03:42;;;;;;;3.15;1.35;;;13.30;99.90;;;;;;4968668;28;20046;-62
2023/08/28 03:06:09;;;;;;;2.65;1.60;;;13.30;99.90;;;;;;4968610;28;20050;-62
2023/08/28 03:08:36;;;;;;;2.47;1.30;;;13.30;99.90;;;;;;4968434;28;20057;-62
2023/08/28 03:11:02;;;;;;;4.93;1.55;;;13.30;99.90;;;;;;4968173;28;20046;-64
2023/08/28 03:13:29;;;;;;;2.13;1.17;;;13.40;99.90;;;;;;4968991;28;20050;-62
2023/08/28 03:15:56;;;;;;;4.18;1.50;;;13.40;99.90;;;;;;4967904;28;20047;-62
2023/08/28 03:18:23;;;;;;;5.35;1.70;;;13.30;99.90;;;;;;4967844;28;20141;-62
2023/08/28 03:20:50;;;;;;;2.33;1.08;;;13.30;99.90;;;;;;4966773;28;20105;-62
2023/08/28 03:23:17;;;;;;;5.40;1.42;;;13.30;99.90;;;;;;4968987;28;20070;-63
2023/08/28 03:25:44;;;;;;;3.00;1.63;;;13.20;99.90;;;;;;4967469;28;20042;-62
2023/08/28 03:28:11;;;;;;;3.65;1.60;;;13.20;99.90;;;;;;4967667;28;20379;-62
2023/08/28 03:30:38;;;;;;;1.67;1.30;;;13.20;99.90;;;;;;4967586;28;20560;-63
2023/08/28 03:33:07;;;;;;;2.90;1.80;;;13.20;99.90;;;;;;4961555;28;20044;-63
2023/08/28 03:35:34;;;;;;;3.92;1.77;;;13.10;99.90;;;;;;4964927;28;20609;-62
2023/08/28 03:38:01;;;;;;;2.65;1.30;;;13.10;99.90;;;;;;4967559;28;20078;-62
2023/08/28 03:40:28;;;;;;;3.70;1.30;;;13.00;99.90;;;;;;4968071;28;20388;-63
2023/08/28 03:42:55;;;;;;;3.50;1.52;;;13.00;99.90;;;;;;4968069;28;20039;-63
2023/08/28 03:45:22;;;;;;;6.18;1.75;;;13.10;99.90;;;;;;4967606;28;20057;-62
2023/08/28 03:47:48;;;;;;;4.10;1.80;;;13.00;99.90;;;;;;4968255;28;20360;-62
2023/08/28 03:50:15;;;;;;;4.88;1.65;;;13.00;99.90;;;;;;4968498;28;20051;-62
2023/08/28 03:52:42;;;;;;;1.98;1.13;;;13.00;99.90;;;;;;4967550;28;20051;-62
2023/08/28 03:55:10;;;;;;;3.97;1.70;;;13.00;99.90;;;;;;4967987;28;20054;-62
2023/08/28 03:57:37;;;;;;;2.67;1.40;;;12.90;99.90;;;;;;4966210;28;20054;-63
2023/08/28 04:00:10;;;;;;;4.57;1.83;;;12.90;99.90;;;;;;4968256;28;20053;-62
2023/08/28 04:02:38;;;;;;;3.27;1.93;;;12.80;99.90;;;;;;4965234;28;20046;-62
2023/08/28 04:05:06;;;;;;;2.85;1.52;;;12.70;99.90;;;;;;4973642;28;20043;-63
2023/08/28 04:07:34;;;;;;;6.35;2.38;;;12.70;99.90;;;;;;4968669;28;20058;-63
2023/08/28 04:10:03;;;;;;;3.70;1.92;;;12.70;99.90;;;;;;4967408;28;20142;-62
2023/08/28 04:12:30;;;;;;;3.20;1.75;;;12.60;99.90;;;;;;4967956;28;20172;-62
2023/08/28 04:14:57;;;;;;;4.03;1.52;;;12.60;99.90;;;;;;4967939;28;20508;-62
2023/08/28 04:17:25;;;;;;;1.88;1.30;;;12.60;99.90;;;;;;4974698;28;20098;-63
2023/08/28 04:19:53;;;;;;;3.47;1.17;;;12.60;99.90;;;;;;4968040;28;20047;-62
2023/08/28 04:22:20;;;;;;;3.70;1.48;;;12.50;99.90;;;;;;4967872;28;20051;-63
2023/08/28 04:24:49;;;;;;;3.17;1.30;;;12.50;99.90;;;;;;4968175;28;20525;-64
2023/08/28 04:27:16;;;;;;;3.92;1.50;;;12.50;99.90;;;;;;4967616;28;20047;-64
2023/08/28 04:29:43;;;;;;;2.63;1.35;;;12.50;99.90;;;;;;4967906;28;20489;-63
2023/08/28 04:32:10;;;;;;;4.63;1.35;;;12.50;99.90;;;;;;4967414;28;20289;-63
2023/08/28 04:34:37;;;;;;;2.15;1.50;;;12.50;99.90;;;;;;4967412;28;20482;-63
2023/08/28 04:37:04;;;;;;;4.88;1.50;;;12.50;99.90;;;;;;4967319;28;20524;-63
2023/08/28 04:39:30;;;;;;;2.20;1.20;;;12.50;99.90;;;;;;4968069;28;20093;-63
2023/08/28 04:41:57;;;;;;;2.20;1.30;;;12.50;99.90;;;;;;4969625;28;20050;-63
2023/08/28 04:44:24;;;;;;;4.20;1.60;;;12.50;99.90;;;;;;4971474;28;20055;-64
2023/08/28 04:46:51;;;;;;;1.83;1.48;;;12.50;99.90;;;;;;4971113;28;20576;-62
2023/08/28 04:49:18;;;;;;;3.80;1.40;;;12.50;99.90;;;;;;4969733;28;20054;-63
2023/08/28 04:51:45;;;;;;;4.15;1.30;;;12.50;99.90;;;;;;4969822;28;20106;-62
2023/08/28 04:54:11;;;;;;;4.63;1.40;;;12.40;99.90;;;;;;4953603;28;20059;-63
2023/08/28 04:56:38;;;;;;;3.97;1.80;;;12.40;99.90;;;;;;4970753;28;20529;-63
2023/08/28 04:59:05;;;;;;;5.25;1.33;;;12.40;99.90;;;;;;4953677;28;20046;-62
2023/08/28 05:01:32;;;;;;;2.25;1.20;;;12.30;99.90;;;;;;4970425;28;20054;-63
2023/08/28 05:03:59;;;;;;;5.88;1.30;;;12.30;99.90;;;;;;4969187;28;20457;-62
2023/08/28 05:06:26;;;;;;;3.38;1.42;;;12.30;99.90;;;;;;4970898;28;20043;-62
2023/08/28 05:08:54;;;;;;;4.53;1.45;;;12.30;99.90;;;;;;4970561;28;20466;-62
2023/08/28 05:11:21;;;;;;;1.77;1.23;;;12.30;99.90;;;;;;4970589;28;20106;-62
2023/08/28 05:13:47;;;;;;;3.15;1.63;;;12.30;99.90;;;;;;4968818;28;20046;-62
2023/08/28 05:16:14;;;;;;;4.70;2.00;;;12.20;99.90;;;;;;4970324;28;20051;-63
2023/08/28 05:18:41;;;;;;;3.88;1.73;;;12.20;99.90;;;;;;4970524;28;20038;-61
2023/08/28 05:21:09;;;;;;;3.13;1.60;;;12.20;99.90;;;;;;4971122;28;20103;-62
2023/08/28 05:23:36;;;;;;;6.53;1.88;;;12.20;99.90;;;;;;4970946;28;20047;-61
2023/08/28 05:26:03;;;;;;;2.22;1.42;;;12.20;99.90;;;;;;4971020;28;20047;-61
2023/08/28 05:28:31;;;;;;;1.73;1.15;;;12.20;99.90;;;;;;4970602;28;20039;-62
2023/08/28 05:30:58;;;;;;;4.57;1.98;;;12.20;99.90;;;;;;4970280;28;20047;-62
2023/08/28 05:33:25;;;;;;;3.97;1.65;;;12.20;99.90;;;;;;4960143;28;20046;-62
2023/08/28 05:35:51;;;;;;;2.22;1.35;;;12.20;99.90;;;;;;4969165;28;20047;-62
2023/08/28 05:38:19;;;;;;;2.92;1.85;;;12.20;99.90;;;;;;4970643;28;20127;-62
2023/08/28 05:40:46;;;;;;;2.45;1.33;;;12.20;99.90;;;;;;4970012;28;20506;-62
2023/08/28 05:43:13;;;;;;;2.70;2.10;;;12.20;99.90;;;;;;4970215;28;20051;-62
2023/08/28 05:45:40;;;;;;;4.30;2.10;;;12.30;99.90;;;;;;4970080;28;20446;-62
2023/08/28 05:48:07;;;;;;;4.03;1.90;;;12.30;99.90;;;;;;4969557;28;20050;-62
2023/08/28 05:50:36;;;;;;;2.28;1.50;;;12.30;99.90;;;;;;4970748;28;20086;-63
2023/08/28 05:53:04;;;;;;;3.00;1.83;;;12.30;99.90;;;;;;4969281;28;20414;-63
2023/08/28 05:55:31;;;;;;;7.28;2.03;;;12.40;99.90;;;;;;4970274;28;20049;-62
2023/08/28 05:57:57;;;;;;;4.05;1.67;;;12.40;99.90;;;;;;4969873;28;20109;-62
2023/08/28 06:00:25;;;;;;;5.88;1.88;;;12.40;99.90;;;;;;4969886;28;20457;-62
2023/08/28 06:02:52;;;;;;;3.58;2.05;;;12.40;99.90;;;;;;4968672;28;20039;-62
2023/08/28 06:05:19;;;;;;;4.00;2.00;;;12.50;99.90;;;;;;4968494;28;20486;-62
2023/08/28 06:07:46;;;;;;;4.65;1.85;;;12.60;99.90;;;;;;4970041;28;20046;-61
2023/08/28 06:10:17;;;;;;;6.15;1.70;;;12.60;99.90;;;;;;4969804;28;20051;-62
2023/08/28 06:12:47;;;;;;;3.70;1.48;;;12.60;99.90;;;;;;4969786;28;20047;-62
2023/08/28 06:15:18;;;;;;;4.60;2.60;;;12.60;99.90;;;;;;4969198;28;20053;-62
2023/08/28 06:17:46;;;;;;;3.78;1.75;;;12.80;99.90;;;;;;4969621;28;20039;-62
2023/08/28 06:20:13;;;;;;;4.38;2.00;;;12.80;99.90;;;;;;4969930;28;20054;-62
2023/08/28 06:22:43;;;;;;;4.00;1.67;;;12.90;99.90;;;;;;4969634;28;20051;-62
2023/08/28 06:25:10;;;;;;;5.28;2.15;;;12.90;99.90;;;;;;4969969;28;20054;-63
2023/08/28 06:27:38;;;;;;;3.28;1.50;;;13.00;99.90;;;;;;4969112;28;20039;-62
2023/08/28 06:30:06;;;;;;;3.38;1.50;;;13.10;99.90;;;;;;4967705;28;20051;-62
2023/08/28 06:32:32;;;;;;;5.55;2.20;;;13.20;99.90;;;;;;4969011;28;20101;-63
2023/08/28 06:34:59;;;;;;;5.10;1.98;;;13.30;99.90;;;;;;4968810;28;20134;-63
2023/08/28 06:37:26;;;;;;;3.25;1.65;;;13.40;99.90;;;;;;4969299;28;20089;-63
2023/08/28 06:39:53;;;;;;;10.07;2.75;;;13.50;99.90;;;;;;4969164;28;20113;-62
2023/08/28 06:42:20;;;;;;;3.03;1.73;;;13.60;99.90;;;;;;4969575;28;20058;-63
2023/08/28 06:44:49;;;;;;;3.17;1.63;;;13.60;99.90;;;;;;4969383;28;20046;-63
2023/08/28 06:47:16;;;;;;;6.05;1.90;;;13.70;99.90;;;;;;4968425;28;20059;-62
2023/08/28 06:49:43;;;;;;;7.72;2.35;;;13.70;99.90;;;;;;4969423;28;20046;-64
2023/08/28 06:52:10;;;;;;;5.32;2.67;;;13.70;99.90;;;;;;4968969;28;20054;-63
2023/08/28 06:54:37;;;;;;;3.95;2.45;;;13.80;99.90;;;;;;4968675;28;20039;-63
2023/08/28 06:57:17;;;;;;;5.50;2.40;;;13.80;99.90;;;;;;4968826;28;20051;-65
2023/08/28 06:59:44;;;;;;;3.90;2.10;;;13.90;99.90;;;;;;4967888;28;20057;-64
2023/08/28 07:02:11;;;;;;;7.22;2.35;;;14.00;99.90;;;;;;4966615;28;20051;-62
2023/08/28 07:04:38;;;;;;;5.30;2.75;;;14.00;99.90;;;;;;4966747;28;20117;-63
2023/08/28 07:07:05;;;;;;;11.23;3.15;;;14.10;99.90;;;;;;4968415;28;20133;-63
2023/08/28 07:09:32;;;;;;;3.80;2.40;;;14.20;99.90;;;;;;4968931;28;20491;-63
2023/08/28 07:11:59;;;;;;;6.15;2.80;;;14.20;99.90;;;;;;4968565;28;20261;-63
2023/08/28 07:14:26;;;;;;;7.97;2.88;;;14.20;99.90;;;;;;4967122;28;20046;-62
2023/08/28 07:16:53;;;;;;;6.75;2.53;;;14.20;99.90;;;;;;4968311;28;20101;-63
2023/08/28 07:19:19;;;;;;;4.55;2.70;;;14.20;99.90;;;;;;4965923;28;20058;-63
2023/08/28 07:21:46;;;;;;;4.53;2.75;;;14.40;99.90;;;;;;4968413;28;20039;-63
2023/08/28 07:24:13;;;;;;;4.07;2.78;;;14.40;99.90;;;;;;4968321;28;20572;-63
2023/08/28 07:26:40;;;;;;;4.20;2.53;;;14.50;99.90;;;;;;4968003;28;20043;-64
2023/08/28 07:29:07;;;;;;;5.10;3.28;;;14.60;99.90;;;;;;4968728;28;20050;-63
2023/08/28 07:31:34;;;;;;;4.43;2.63;;;14.60;99.90;;;;;;4605513;28;10000433;-64
2023/08/28 07:34:03;;;;;;;4.43;2.40;;;14.60;99.90;;;;;;4964692;28;20042;-63
2023/08/28 07:36:30;;;;;;;5.65;2.92;;;14.60;99.90;;;;;;4964614;28;20054;-63
2023/08/28 07:38:57;;;;;;;6.63;2.72;;;14.60;99.90;;;;;;4947479;28;20043;-63
2023/08/28 07:41:24;;;;;;;4.38;2.67;;;14.60;99.90;;;;;;4963665;28;20050;-64
2023/08/28 07:43:51;;;;;;;5.10;2.38;;;14.70;99.90;;;;;;4964103;28;20047;-62
2023/08/28 07:46:17;;;;;;;3.90;2.60;;;14.70;99.90;;;;;;4964244;28;20144;-63
2023/08/28 07:48:44;;;;;;;3.58;2.92;;;14.80;99.90;;;;;;4964709;28;20058;-61
2023/08/28 07:51:11;;;;;;;3.22;2.75;;;14.80;99.90;;;;;;4962984;28;20110;-63
2023/08/28 07:53:39;;;;;;;5.15;2.72;;;14.90;99.90;;;;;;4947018;28;20061;-62
2023/08/28 07:56:06;;;;;;;5.47;3.05;;;14.80;99.90;;;;;;4963801;28;20054;-63
2023/08/28 07:58:33;;;;;;;5.22;2.85;;;14.80;99.90;;;;;;4966192;28;20485;-63
2023/08/28 08:01:00;;;;;;;7.30;3.00;;;14.90;99.90;;;;;;4967565;28;20046;-63
2023/08/28 08:03:27;;;;;;;6.15;2.80;;;14.80;99.90;;;;;;4968281;28;20043;-63
2023/08/28 08:05:55;;;;;;;5.50;2.72;;;14.80;99.90;;;;;;4950501;28;20133;-62
2023/08/28 08:08:23;;;;;;;5.25;3.03;;;14.90;99.90;;;;;;4966760;28;20127;-62
2023/08/28 08:10:51;;;;;;;7.20;2.78;;;14.90;99.90;;;;;;4968554;28;20154;-64
2023/08/28 08:13:18;;;;;;;8.27;2.95;;;15.00;99.90;;;;;;4968235;28;20054;-63
2023/08/28 08:15:45;;;;;;;4.85;2.15;;;15.10;99.90;;;;;;4969119;28;20094;-62
2023/08/28 08:18:12;;;;;;;4.95;2.42;;;15.10;99.90;;;;;;4971828;28;20055;-64
2023/08/28 08:20:38;;;;;;;2.83;2.30;;;15.20;99.90;;;;;;4971035;28;20081;-62
2023/08/28 08:23:05;;;;;;;3.58;2.20;;;15.30;99.90;;;;;;4972394;28;20121;-64
2023/08/28 08:25:33;;;;;;;4.15;3.08;;;15.40;99.90;;;;;;4971414;28;20047;-65
2023/08/28 08:28:02;;;;;;;6.03;2.75;;;15.50;99.90;;;;;;4971621;28;20090;-65
2023/08/28 08:30:29;;;;;;;5.75;2.67;;;15.50;99.90;;;;;;4971158;28;20047;-64
2023/08/28 08:32:56;;;;;;;4.18;2.22;;;15.70;99.90;;;;;;4971063;28;20122;-64
2023/08/28 08:35:24;;;;;;;4.20;2.35;;;15.90;99.90;;;;;;4971457;28;20078;-64
2023/08/28 08:37:52;;;;;;;3.08;2.38;;;15.90;99.90;;;;;;4969622;28;20347;-63
2023/08/28 08:40:24;;;;;;;5.72;2.42;;;15.90;99.90;;;;;;4970779;28;20058;-63
2023/08/28 08:42:51;;;;;;;4.82;2.30;;;16.00;99.90;;;;;;4967861;28;20043;-63
2023/08/28 08:45:18;;;;;;;8.15;3.42;;;16.10;99.90;;;;;;4971202;28;20043;-62
2023/08/28 08:47:47;;;;;;;4.70;2.72;;;16.10;99.90;;;;;;4970280;28;20074;-62
2023/08/28 08:50:14;;;;;;;4.22;2.75;;;16.20;99.90;;;;;;4967137;28;20054;-64
2023/08/28 08:52:41;;;;;;;4.78;2.33;;;16.20;99.90;;;;;;4969593;28;20090;-63
2023/08/28 08:55:26;;;;;;;2.63;1.80;;;16.30;99.90;;;;;;4953824;28;20055;-63
2023/08/28 08:57:55;;;;;;;4.30;2.42;;;16.40;99.90;;;;;;4970220;28;20105;-63
2023/08/28 09:00:22;;;;;;;4.57;1.80;;;16.50;99.90;;;;;;4962337;28;20054;-63
2023/08/28 09:02:49;;;;;;;3.58;1.98;;;16.50;99.90;;;;;;4969343;28;20073;-62
2023/08/28 09:05:16;;;;;;;4.32;1.85;;;16.50;99.90;;;;;;4954243;28;20062;-65
2023/08/28 09:07:44;;;;;;;5.25;1.80;;;16.50;99.90;;;;;;4969308;28;20295;-64
2023/08/28 09:10:12;;;;;;;3.25;1.90;;;16.60;99.90;;;;;;4970652;28;20694;-63
2023/08/28 09:12:39;;;;;;;3.13;2.15;;;16.60;99.90;;;;;;4970464;28;20500;-64
2023/08/28 09:15:06;;;;;;;4.25;1.80;;;16.70;99.90;;;;;;4970450;28;20053;-64
2023/08/28 09:17:39;;;;;;;3.03;1.30;;;16.70;99.90;;;;;;4967512;28;20059;-64
2023/08/28 09:20:13;;;;;;;2.77;1.30;;;16.80;99.90;;;;;;4970192;28;20090;-64
2023/08/28 09:22:47;;;;;;;2.72;1.33;;;16.70;99.90;;;;;;4970252;28;20309;-64
2023/08/28 09:25:23;;;;;;;3.03;1.20;;;16.80;99.90;;;;;;4961067;28;20051;-63
2023/08/28 09:27:52;;;;;;;6.05;1.40;;;17.00;99.90;;;;;;4961860;28;20072;-63
2023/08/28 09:30:38;;;;;;;1.60;1.40;;;17.00;99.90;;;;;;4605912;28;10000687;-62
2023/08/28 09:33:06;;;;;;;4.18;1.48;;;17.00;99.90;;;;;;4959968;28;20066;-62
2023/08/28 09:35:41;;;;;;;1.48;1.10;;;17.00;99.90;;;;;;4967218;28;20050;-62
2023/08/28 09:38:08;;;;;;;2.40;1.30;;;17.20;99.90;;;;;;4964024;28;20050;-62
2023/08/28 09:40:37;;;;;;;1.50;1.10;;;17.50;99.90;;;;;;4966901;28;20316;-62
2023/08/28 09:43:13;;;;;;;2.58;1.40;;;17.80;99.90;;;;;;4966260;28;20545;-62
2023/08/28 09:45:41;;;;;;;1.23;0.90;;;18.30;99.90;;;;;;4965573;28;20117;-62
2023/08/28 09:48:08;;;;;;;2.38;1.25;;;18.60;99.90;;;;;;4963355;28;20039;-62
2023/08/28 09:50:38;;;;;;;3.00;1.35;;;18.60;99.90;;;;;;4963674;28;20054;-63
2023/08/28 09:53:14;;;;;;;2.42;1.33;;;18.80;99.90;;;;;;4965046;28;20203;-62
2023/08/28 09:55:54;;;;;;;5.72;1.20;;;19.10;99.90;;;;;;4958294;28;20043;-62
2023/08/28 09:58:24;;;;;;;2.10;0.98;;;19.40;99.90;;;;;;4963442;28;20093;-64
2023/08/28 10:00:51;;;;;;;0.75;0.70;;;19.70;99.90;;;;;;4964258;28;20058;-63
2023/08/28 10:03:20;;;;;;;1.67;0.80;;;19.90;99.90;;;;;;4966682;28;20063;-62
2023/08/28 10:05:47;;;;;;;2.72;1.20;;;20.00;99.90;;;;;;4966019;28;20081;-62
2023/08/28 10:08:15;;;;;;;5.05;1.15;;;19.90;99.90;;;;;;4949136;28;20103;-64
2023/08/28 10:10:47;;;;;;;1.80;0.88;;;19.80;99.90;;;;;;4966089;28;20042;-62
2023/08/28 10:13:20;;;;;;;4.88;1.23;;;19.80;99.90;;;;;;4960377;28;20047;-61
2023/08/28 10:16:10;;;;;;;2.28;1.00;;;19.50;99.90;;;;;;4966554;28;20101;-62
2023/08/28 10:18:42;;;;;;;1.15;0.75;;;19.40;99.90;;;;;;4964316;28;20430;-61
2023/08/28 10:21:09;;;;;;;2.40;1.17;;;19.50;99.90;;;;;;4964950;28;20287;-62
2023/08/28 10:23:36;;;;;;;1.63;1.15;;;19.60;99.90;;;;;;4966641;28;20057;-61
2023/08/28 10:26:03;;;;;;;2.67;1.00;;;19.70;99.90;;;;;;4966217;28;20046;-61
2023/08/28 10:28:29;;;;;;;1.98;1.20;;;19.70;99.90;;;;;;4965043;28;20050;-60
2023/08/28 10:30:57;;;;;;;1.20;1.00;;;19.60;99.90;;;;;;4947734;28;20109;-61
2023/08/28 10:33:25;;;;;;;1.35;1.00;;;19.50;99.90;;;;;;4966943;28;20105;-60
2023/08/28 10:35:53;;;;;;;5.00;1.20;;;19.30;99.90;;;;;;4964996;28;20051;-61
2023/08/28 10:38:20;;;;;;;1.55;1.20;;;19.00;99.90;;;;;;4965249;28;20832;-61
2023/08/28 10:40:48;;;;;;;1.67;0.82;;;19.00;99.90;;;;;;4965517;28;20070;-60
2023/08/28 10:43:22;;;;;;;1.67;1.17;;;19.10;99.90;;;;;;4948284;28;20059;-60
2023/08/28 10:45:52;;;;;;;2.20;0.95;;;19.10;99.90;;;;;;4964766;28;20699;-60
2023/08/28 10:48:20;;;;;;;3.17;1.08;;;19.00;99.90;;;;;;4964936;28;20055;-61
2023/08/28 10:50:47;;;;;;;3.67;1.30;;;19.00;99.90;;;;;;4964693;28;20151;-60
2023/08/28 10:53:14;;;;;;;3.83;1.02;;;18.90;99.90;;;;;;4965952;28;20058;-61
2023/08/28 10:55:59;;;;;;;2.85;1.02;;;19.00;99.90;;;;;;4965370;28;20154;-61
2023/08/28 10:58:39;;;;;;;4.78;1.10;;;19.10;99.90;;;;;;4964405;28;20232;-60
2023/08/28 11:01:16;;;;;;;1.70;0.82;;;19.30;99.90;;;;;;4947652;28;20191;-61
2023/08/28 11:03:56;;;;;;;1.38;0.80;;;19.40;99.90;;;;;;4966662;28;20497;-61
2023/08/28 11:06:43;;;;;;;5.78;1.33;;;19.30;99.90;;;;;;4964320;28;20081;-60
2023/08/28 11:09:28;;;;;;;2.20;1.27;;;19.20;99.90;;;;;;4964411;28;20051;-61
2023/08/28 11:11:58;;;;;;;2.17;1.00;;;19.40;99.90;;;;;;4964346;28;20577;-62
2023/08/28 11:14:32;;;;;;;2.85;1.40;;;19.40;99.90;;;;;;4964199;28;20051;-61
2023/08/28 11:17:18;;;;;;;2.90;1.80;;;19.40;99.90;;;;;;4963065;28;20506;-60
2023/08/28 11:19:55;;;;;;;1.50;0.93;;;19.40;99.90;;;;;;4964573;28;20449;-60
2023/08/28 11:22:29;;;;;;;2.03;0.90;;;19.50;99.90;;;;;;4965331;28;20130;-61
2023/08/28 11:24:56;;;;;;;2.42;0.77;;;19.50;99.90;;;;;;4959724;28;20756;-57
2023/08/28 11:27:53;;;;;;;1.33;0.55;;;19.50;99.90;;;;;;4965030;28;20058;-61
2023/08/28 11:30:21;;;;;;;1.83;1.05;;;19.50;99.90;;;;;;4962446;28;20054;-60
2023/08/28 11:32:52;;;;;;;0.88;0.68;;;19.50;99.90;;;;;;4964514;28;20047;-61
2023/08/28 11:35:20;;;;;;;3.15;1.00;;;19.60;99.90;;;;;;4963706;28;20051;-61
2023/08/28 11:37:52;;;;;;;0.77;0.55;;;19.70;99.90;;;;;;4963684;28;20046;-61
2023/08/28 11:40:21;;;;;;;0.82;0.63;;;19.70;99.90;;;;;;4964167;28;20055;-62
2023/08/28 11:42:48;;;;;;;1.98;0.98;;;19.70;99.90;;;;;;4963765;28;20047;-62
2023/08/28 11:45:22;;;;;;;1.50;0.70;;;19.60;99.90;;;;;;4963682;28;20058;-61
2023/08/28 11:47:52;;;;;;;3.42;0.70;;;19.80;99.90;;;;;;4962444;28;20043;-62
2023/08/28 11:50:19;;;;;;;1.88;0.70;;;19.70;99.90;;;;;;4963462;28;20055;-62
2023/08/28 11:52:50;;;;;;;2.90;0.95;;;19.80;99.90;;;;;;4963816;28;20109;-60
2023/08/28 11:55:19;;;;;;;2.03;0.70;;;19.90;99.90;;;;;;4963228;28;20249;-61
2023/08/28 11:57:48;;;;;;;1.75;0.73;;;20.00;99.90;;;;;;4957430;28;20057;-61
2023/08/28 12:00:16;;;;;;;0.90;0.65;;;20.10;99.90;;;;;;4962778;28;20498;-61
2023/08/28 12:02:45;;;;;;;1.15;0.60;;;20.30;99.90;;;;;;4963902;28;20051;-62
2023/08/28 12:05:16;;;;;;;1.17;0.82;;;20.20;99.90;;;;;;4964313;28;20065;-62
2023/08/28 12:07:43;;;;;;;3.50;0.90;;;20.20;99.90;;;;;;4964170;28;20181;-61
2023/08/28 12:10:15;;;;;;;3.83;1.25;;;20.20;99.90;;;;;;4964271;28;20105;-61
2023/08/28 12:12:42;;;;;;;1.08;0.70;;;20.20;99.90;;;;;;4964649;28;20055;-61
2023/08/28 12:15:09;;;;;;;3.42;0.70;;;20.20;99.90;;;;;;4963583;28;20074;-61
2023/08/28 12:17:37;;;;;;;3.92;1.02;;;20.30;99.90;;;;;;4961487;28;20729;-61
2023/08/28 12:20:08;;;;;;;1.13;1.00;;;20.30;99.90;;;;;;4963893;28;20146;-63
2023/08/28 12:22:42;;;;;;;1.73;0.80;;;20.30;99.90;;;;;;4964229;28;20094;-64
2023/08/28 12:25:09;;;;;;;1.70;0.88;;;20.30;99.90;;;;;;4947281;28;20166;-63
2023/08/28 12:27:35;;;;;;;2.92;0.80;;;20.20;99.90;;;;;;4963450;28;20054;-62
2023/08/28 12:30:04;;;;;;;1.00;0.65;;;20.20;99.90;;;;;;4963616;28;20082;-62
2023/08/28 12:32:30;;;;;;;1.65;0.70;;;20.10;99.90;;;;;;4931326;28;20058;-62
2023/08/28 12:35:09;;;;;;;3.58;1.52;;;20.30;99.90;;;;;;4946805;28;20074;-62
2023/08/28 12:37:36;;;;;;;2.03;0.75;;;20.40;99.90;;;;;;4965286;28;20050;-62
2023/08/28 12:40:06;;;;;;;5.82;1.80;;;20.30;99.90;;;;;;4966497;28;20054;-61
2023/08/28 12:42:33;;;;;;;3.88;1.13;;;20.40;99.90;;;;;;4967377;28;20453;-62
2023/08/28 12:44:59;;;;;;;3.30;1.30;;;20.50;99.90;;;;;;4963895;28;20450;-63
2023/08/28 12:47:26;;;;;;;4.25;0.88;;;20.50;99.90;;;;;;4948268;28;20055;-63
2023/08/28 12:49:53;;;;;;;1.00;0.70;;;20.50;99.90;;;;;;4950062;28;20053;-64
2023/08/28 12:52:20;;;;;;;0.70;0.57;;;20.50;99.90;;;;;;4967433;28;20489;-63
2023/08/28 12:54:47;;;;;;;1.88;0.80;;;20.60;99.90;;;;;;4966537;28;20039;-63